Time;durP1;ratioP1;P1;durP2;ratioP2;P2;SDS_P1;SDS_P2;PMS_P1;PMS_P2;Temp;Humidity;BMP_temperature;BMP_pressure;BME280_temperature;BME280_humidity;BME280_pressure;Samples;Min_cycle;Max_cycle;Signal;HPM_P1;HPM_P2
2021/04/02 00:00:56;;;;;;;1.12;0.57;;;;;;;11.49;81.55;97372.37;1667665;85;21222;-65
2021/04/02 00:03:28;;;;;;;1.27;0.72;;;;;;;11.41;84.10;97361.98;1667717;86;21157;-64
2021/04/02 00:05:57;;;;;;;3.55;1.15;;;;;;;11.38;83.55;97361.00;1667559;85;21172;-64
2021/04/02 00:08:25;;;;;;;2.85;0.60;;;;;;;11.42;84.03;97363.61;1667395;86;21612;-64
2021/04/02 00:10:57;;;;;;;3.33;1.52;;;;;;;11.39;83.61;97354.36;1667673;85;21155;-63
2021/04/02 00:16:13;;;;;;;1.12;0.72;;;;;;;11.42;84.01;97321.53;1671845;86;21167;-64
2021/04/02 00:18:43;;;;;;;1.42;0.80;;;;;;;11.40;84.03;97320.86;1640253;87;21211;-64
2021/04/02 00:21:14;;;;;;;0.95;0.53;;;;;;;11.40;83.19;97302.66;1658633;86;21642;-64
2021/04/02 00:23:43;;;;;;;1.80;0.85;;;;;;;11.39;83.21;97299.77;1658764;86;21244;-63
2021/04/02 00:26:17;;;;;;;1.45;0.80;;;;;;;11.38;83.70;97292.94;1640251;87;21192;-64
2021/04/02 00:28:47;;;;;;;1.00;0.68;;;;;;;11.38;83.25;97293.42;1640336;87;21183;-63
2021/04/02 00:31:15;;;;;;;2.20;1.10;;;;;;;11.39;83.31;97285.47;1658765;86;21645;-63
2021/04/02 00:33:43;;;;;;;0.68;0.60;;;;;;;11.41;83.44;97286.10;1673040;86;21306;-65
2021/04/02 00:36:11;;;;;;;1.30;0.72;;;;;;;11.41;83.28;97289.19;1640394;87;21569;-65
2021/04/02 00:38:41;;;;;;;1.15;0.75;;;;;;;11.44;82.65;97282.34;1640289;87;21215;-65
2021/04/02 00:41:12;;;;;;;1.77;0.88;;;;;;;11.50;82.12;97284.80;1616308;87;21191;-65
2021/04/02 00:43:47;;;;;;;3.40;1.37;;;;;;;11.52;82.41;97282.34;1658599;86;21208;-65
2021/04/02 00:46:19;;;;;;;0.67;0.63;;;;;;;11.40;85.77;97269.36;1658869;86;21627;-65
2021/04/02 00:48:49;;;;;;;2.02;0.60;;;;;;;11.43;85.21;97269.05;1658669;86;21191;-64
2021/04/02 00:51:29;;;;;;;1.07;0.68;;;;;;;11.43;85.35;97262.06;1658898;86;21215;-64
2021/04/02 00:53:58;;;;;;;1.70;0.80;;;;;;;11.32;86.68;97247.30;1640347;87;21201;-64
2021/04/02 00:56:27;;;;;;;1.95;1.17;;;;;;;11.40;84.84;97247.26;1658689;86;21178;-64
2021/04/02 00:58:56;;;;;;;4.62;1.32;;;;;;;11.46;83.90;97249.21;1640394;87;21228;-64
2021/04/02 01:01:24;;;;;;;0.85;0.82;;;;;;;11.50;83.99;97247.09;1658793;86;21186;-64
2021/04/02 01:03:54;;;;;;;2.08;0.95;;;;;;;11.53;84.98;97239.77;1672815;86;21191;-64
2021/04/02 01:06:26;;;;;;;1.22;0.93;;;;;;;11.54;85.20;97247.91;1640312;86;21179;-64
2021/04/02 01:08:57;;;;;;;2.80;1.40;;;;;;;11.52;85.40;97243.34;1640273;87;21616;-63
2021/04/02 01:11:27;;;;;;;1.27;0.80;;;;;;;11.25;87.48;97235.42;1658636;86;21573;-64
2021/04/02 01:13:59;;;;;;;3.27;1.00;;;;;;;11.39;85.68;97242.57;1672728;85;21583;-63
2021/04/02 01:19:35;;;;;;;3.50;1.27;;;;;;;11.54;83.80;97235.38;1703837;83;21200;-64
2021/04/02 01:22:16;;;;;;;2.30;1.45;;;;;;;11.60;83.85;97229.02;1710555;83;21196;-65
2021/04/02 01:25:11;;;;;;;1.75;0.90;;;;;;;11.49;85.45;97215.08;1710306;83;21297;-64
2021/04/02 01:28:04;;;;;;;1.60;0.90;;;;;;;11.44;85.21;97214.27;1702371;83;21209;-64
2021/04/02 01:30:34;;;;;;;2.12;1.00;;;;;;;11.46;84.28;97198.52;1688829;84;21390;-62
2021/04/02 01:33:06;;;;;;;2.33;0.70;;;;;;;11.46;85.25;97189.41;1727202;82;21619;-61
2021/04/02 01:35:38;;;;;;;1.57;1.15;;;;;;;11.46;85.45;97181.62;1727149;82;21167;-67
2021/04/02 01:38:11;;;;;;;2.00;0.98;;;;;;;11.49;84.62;97186.48;1727339;82;21168;-62
2021/04/02 01:40:45;;;;;;;2.10;1.05;;;;;;;11.50;85.12;97174.30;1727323;83;21160;-64
2021/04/02 01:43:21;;;;;;;1.70;1.00;;;;;;;11.48;84.71;97165.86;1727452;83;21163;-64
2021/04/02 01:45:52;;;;;;;1.37;0.93;;;;;;;11.46;84.56;97155.62;1727352;83;21175;-64
2021/04/02 01:48:22;;;;;;;3.98;0.90;;;;;;;11.49;84.32;97153.98;1727600;83;21174;-65
2021/04/02 01:50:53;;;;;;;1.87;0.90;;;;;;;11.55;83.77;97152.51;1727810;83;21163;-65
2021/04/02 01:53:30;;;;;;;1.45;1.10;;;;;;;11.60;83.65;97156.70;1727897;82;21227;-64
2021/04/02 01:55:58;;;;;;;;;;;;;;;11.58;83.68;97155.58;1730423;83;21196;-67
2021/04/02 01:58:27;;;;;;;7.28;1.90;;;;;;;11.55;84.07;97159.83;1727867;83;20191;-66
2021/04/02 02:01:01;;;;;;;2.45;1.60;;;;;;;11.54;83.91;97149.09;1727831;82;21615;-62
2021/04/02 02:03:32;;;;;;;2.60;1.27;;;;;;;11.46;85.06;97139.20;1726766;82;21162;-62
2021/04/02 02:06:05;;;;;;;2.70;1.65;;;;;;;11.41;85.87;97125.41;1727181;82;21151;-62
2021/04/02 02:08:48;;;;;;;3.52;1.67;;;;;;;11.16;87.51;97117.38;1704230;83;21909;-62
2021/04/02 02:11:20;;;;;;;1.57;1.35;;;;;;;11.16;87.62;97113.00;1727215;82;21215;-62
2021/04/02 02:14:01;;;;;;;2.20;1.27;;;;;;;11.15;87.09;97110.06;1727241;82;21603;-65
2021/04/02 02:16:32;;;;;;;1.47;1.07;;;;;;;11.15;86.26;97106.66;1727289;83;21603;-64
2021/04/02 02:19:07;;;;;;;2.02;1.82;;;;;;;11.17;85.67;97100.78;1711941;82;21600;-64
2021/04/02 02:21:42;;;;;;;4.47;1.92;;;;;;;11.17;85.13;97101.60;1706796;84;21620;-66
2021/04/02 02:24:12;;;;;;;2.90;2.00;;;;;;;11.15;84.76;97101.45;1686788;84;21621;-66
2021/04/02 02:26:42;;;;;;;2.98;1.82;;;;;;;11.10;84.96;97089.44;1706884;83;21659;-65
2021/04/02 02:29:31;;;;;;;3.72;2.02;;;;;;;11.04;84.39;97081.03;1686844;84;21600;-65
2021/04/02 02:32:01;;;;;;;4.28;2.25;;;;;;;11.00;84.18;97083.16;1654174;87;21305;-62
2021/04/02 02:34:31;;;;;;;4.17;2.17;;;;;;;10.94;84.18;97072.11;1683293;85;21626;-62
2021/04/02 02:37:02;;;;;;;2.75;1.77;;;;;;;10.86;85.41;97069.05;1683132;84;21629;-63
2021/04/02 02:39:33;;;;;;;5.22;2.10;;;;;;;10.77;84.95;97062.27;1683162;83;21149;-63
2021/04/02 02:42:25;;;;;;;2.85;2.10;;;;;;;10.70;84.62;97048.30;1657914;85;21153;-64
2021/04/02 02:44:54;;;;;;;3.65;2.12;;;;;;;10.65;84.48;97048.01;1666071;86;21182;-62
2021/04/02 02:47:23;;;;;;;5.17;2.42;;;;;;;10.59;85.13;97060.81;1645026;87;21194;-62
2021/04/02 02:49:54;;;;;;;3.27;2.10;;;;;;;10.57;85.10;97062.78;1677412;85;21568;-63
2021/04/02 02:52:23;;;;;;;2.87;2.17;;;;;;;10.56;86.22;97061.97;1677611;85;21268;-62
2021/04/02 02:54:54;;;;;;;7.17;2.47;;;;;;;10.55;85.59;97062.12;1663268;86;21581;-64
2021/04/02 02:57:24;;;;;;;5.95;2.62;;;;;;;10.56;86.99;97059.37;1677638;85;21619;-62
2021/04/02 02:59:54;;;;;;;3.67;2.55;;;;;;;10.52;89.56;97059.37;1663455;85;21171;-64
2021/04/02 03:02:26;;;;;;;3.33;2.08;;;;;;;10.54;87.93;97065.23;1677694;85;21639;-64
2021/04/02 03:05:01;;;;;;;3.98;1.95;;;;;;;10.58;86.67;97070.42;1638761;86;21167;-62
2021/04/02 03:07:33;;;;;;;3.47;2.47;;;;;;;10.61;86.49;97081.77;1677533;85;21800;-64
2021/04/02 03:10:07;;;;;;;5.25;2.80;;;;;;;10.61;87.43;97086.14;1663233;86;21231;-66
2021/04/02 03:12:39;;;;;;;7.03;2.35;;;;;;;10.52;89.92;97093.60;1677777;85;21183;-64
2021/04/02 03:15:12;;;;;;;5.47;2.00;;;;;;;10.48;90.36;97093.94;1677673;85;21627;-63
2021/04/02 03:17:42;;;;;;;3.30;2.05;;;;;;;10.47;90.59;97086.30;1663227;86;21231;-63
2021/04/02 03:20:14;;;;;;;4.47;3.20;;;;;;;10.48;90.79;97073.66;1677505;84;21155;-62
2021/04/02 03:22:43;;;;;;;3.92;2.47;;;;;;;10.43;91.17;97059.86;1663401;86;21183;-62
2021/04/02 03:25:17;;;;;;;3.77;2.60;;;;;;;10.47;90.42;97062.94;1676971;85;21163;-62
2021/04/02 03:27:48;;;;;;;4.83;2.05;;;;;;;10.55;90.10;97058.23;1662894;86;21577;-62
2021/04/02 03:30:22;;;;;;;4.62;2.52;;;;;;;10.56;89.49;97055.96;1676792;85;21139;-62
2021/04/02 03:32:58;;;;;;;5.20;2.47;;;;;;;10.58;89.96;97057.92;1663004;86;21156;-64
2021/04/02 03:35:26;;;;;;;4.20;2.72;;;;;;;10.66;90.47;97052.20;1677349;85;21162;-63
2021/04/02 03:37:56;;;;;;;4.15;2.42;;;;;;;10.71;90.31;97055.12;1677455;85;21270;-64
2021/04/02 03:40:27;;;;;;;4.10;2.05;;;;;;;10.80;90.09;97054.62;1663422;86;21160;-64
2021/04/02 03:43:00;;;;;;;2.50;1.55;;;;;;;10.84;89.12;97052.02;1676110;84;21265;-62
2021/04/02 03:45:30;;;;;;;5.83;2.47;;;;;;;10.85;88.73;97055.77;1654006;86;21731;-62
2021/04/02 03:48:02;;;;;;;2.42;1.50;;;;;;;10.85;88.43;97045.86;1649470;86;21215;-66
2021/04/02 03:50:37;;;;;;;2.58;1.70;;;;;;;10.89;88.67;97051.05;1653812;87;21204;-64
2021/04/02 03:53:20;;;;;;;2.62;2.05;;;;;;;10.92;88.65;97058.50;1668188;86;21598;-64
2021/04/02 03:55:53;;;;;;;1.52;1.07;;;;;;;10.88;89.20;97048.11;1654097;86;21145;-64
2021/04/02 03:58:22;;;;;;;1.75;0.93;;;;;;;10.93;88.50;97045.32;1668480;86;21156;-64
2021/04/02 04:01:20;;;;;;;2.60;1.98;;;;;;;10.93;88.00;97045.84;1637232;87;21180;-65
2021/04/02 04:03:51;;;;;;;3.25;1.80;;;;;;;10.89;87.75;97042.73;1669606;86;21202;-65
2021/04/02 04:06:22;;;;;;;1.32;1.00;;;;;;;10.94;87.89;97049.55;1655295;86;21247;-65
2021/04/02 04:09:00;;;;;;;1.65;0.75;;;;;;;11.02;86.81;97080.38;1669816;86;21191;-65
2021/04/02 04:11:32;;;;;;;4.03;1.80;;;;;;;11.09;84.61;97141.11;1669753;85;21143;-65
2021/04/02 04:14:03;;;;;;;5.62;2.40;;;;;;;11.14;83.86;97138.32;1669748;86;21179;-65
2021/04/02 04:16:36;;;;;;;3.45;1.85;;;;;;;10.98;88.89;97053.92;1655412;86;21211;-65
2021/04/02 04:19:05;;;;;;;3.70;2.08;;;;;;;10.79;89.76;97025.25;1669906;86;21168;-66
2021/04/02 04:21:39;;;;;;;3.77;1.75;;;;;;;10.66;90.43;96990.41;1655140;86;21168;-65
2021/04/02 04:24:31;;;;;;;2.10;1.22;;;;;;;10.59;90.28;97008.89;1669724;86;21203;-65
2021/04/02 04:27:03;;;;;;;1.95;1.45;;;;;;;10.60;90.05;97044.27;1675625;84;21616;-64
2021/04/02 04:29:41;;;;;;;3.15;1.70;;;;;;;10.66;89.12;97061.29;1675671;84;21178;-64
2021/04/02 04:32:16;;;;;;;5.78;2.25;;;;;;;10.69;89.12;97033.72;1675590;84;21271;-63
2021/04/02 04:34:47;;;;;;;5.35;1.92;;;;;;;10.64;89.68;97031.28;1675756;84;21227;-63
2021/04/02 04:37:19;;;;;;;2.62;1.50;;;;;;;10.67;89.98;97025.27;1675592;84;21798;-64
2021/04/02 04:39:49;;;;;;;3.52;1.67;;;;;;;10.68;89.12;97026.90;1675715;84;21198;-64
2021/04/02 04:42:20;;;;;;;3.42;2.17;;;;;;;10.72;89.77;97029.97;1675892;84;21190;-64
2021/04/02 04:45:12;;;;;;;4.90;2.80;;;;;;;10.69;90.55;97025.12;1675673;84;21143;-64
2021/04/02 04:47:40;;;;;;;7.60;2.62;;;;;;;10.65;91.83;97019.94;1646775;86;21179;-62
2021/04/02 04:50:11;;;;;;;4.37;1.72;;;;;;;10.72;90.76;97016.98;1647034;86;21290;-64
2021/04/02 04:52:53;;;;;;;3.30;2.27;;;;;;;10.72;90.31;97011.80;1646855;86;21741;-64
2021/04/02 04:55:23;;;;;;;4.78;2.60;;;;;;;10.71;89.81;96999.78;1646884;86;21292;-63
2021/04/02 04:57:55;;;;;;;4.35;1.87;;;;;;;10.69;89.76;97000.45;1646799;86;21364;-63
2021/04/02 05:00:25;;;;;;;2.58;1.57;;;;;;;10.66;90.19;97004.17;1646924;86;21372;-64
2021/04/02 05:02:54;;;;;;;3.55;2.12;;;;;;;10.64;90.21;97006.63;1646934;86;21187;-63
2021/04/02 05:05:27;;;;;;;2.75;1.87;;;;;;;10.65;89.75;97015.55;1646996;86;21191;-64
2021/04/02 05:07:58;;;;;;;2.92;1.37;;;;;;;10.64;89.50;97017.82;1647009;86;21320;-65
2021/04/02 05:10:29;;;;;;;4.45;1.60;;;;;;;10.65;89.45;97021.23;1646796;86;21703;-64
2021/04/02 05:13:00;;;;;;;1.87;1.40;;;;;;;10.67;89.15;97014.89;1646753;86;21262;-63
2021/04/02 05:15:29;;;;;;;3.55;2.00;;;;;;;10.68;89.19;97017.81;1628234;86;21595;-63
2021/04/02 05:17:57;;;;;;;4.12;2.27;;;;;;;10.67;89.88;97018.78;1646909;86;21156;-63
2021/04/02 05:20:41;;;;;;;2.95;2.15;;;;;;;10.59;90.86;97023.17;1646885;86;21166;-63
2021/04/02 05:23:13;;;;;;;3.47;1.57;;;;;;;10.59;91.33;97027.88;1646870;86;21249;-64
2021/04/02 05:25:42;;;;;;;2.77;1.67;;;;;;;10.68;90.98;97027.38;1646869;86;21587;-64
2021/04/02 05:28:10;;;;;;;2.12;1.42;;;;;;;10.74;90.27;97030.60;1646965;86;21305;-63
2021/04/02 05:30:38;;;;;;;2.60;1.95;;;;;;;10.80;89.74;97029.47;1646622;86;21222;-65
2021/04/02 05:33:07;;;;;;;4.75;2.08;;;;;;;10.93;89.48;97028.44;1628030;86;21148;-65
2021/04/02 05:35:35;;;;;;;3.08;1.77;;;;;;;10.99;88.92;97033.47;1646732;86;21257;-64
2021/04/02 05:38:03;;;;;;;3.27;1.80;;;;;;;11.07;88.63;97039.13;1646798;86;21166;-64
2021/04/02 05:40:32;;;;;;;2.95;1.72;;;;;;;11.14;87.52;97032.27;1646893;86;21393;-64
2021/04/02 05:43:27;;;;;;;2.80;1.77;;;;;;;11.17;87.40;97030.14;1628086;86;21143;-63
2021/04/02 05:45:58;;;;;;;4.10;2.00;;;;;;;11.25;87.24;97025.39;1645515;86;21155;-63
2021/04/02 05:48:30;;;;;;;3.37;1.60;;;;;;;11.38;87.24;97026.48;1641836;87;21249;-63
2021/04/02 05:51:00;;;;;;;2.65;1.70;;;;;;;11.41;86.32;97024.84;1641817;87;21260;-64
2021/04/02 05:53:30;;;;;;;2.75;1.50;;;;;;;11.52;86.59;97031.43;1641902;86;21219;-65
2021/04/02 05:56:02;;;;;;;2.58;1.52;;;;;;;11.69;86.33;97033.45;1641685;87;21227;-63
2021/04/02 05:58:31;;;;;;;2.85;1.47;;;;;;;11.79;83.89;97034.06;1641874;86;21258;-64
2021/04/02 06:00:59;;;;;;;2.42;1.57;;;;;;;11.83;83.74;97033.55;1641748;87;21183;-63
2021/04/02 06:03:28;;;;;;;8.50;4.40;;;;;;;11.95;83.50;97037.05;1641747;87;21233;-64
2021/04/02 06:05:57;;;;;;;5.60;3.77;;;;;;;12.03;83.82;97031.30;1641686;86;21185;-63
2021/04/02 06:08:26;;;;;;;4.97;3.20;;;;;;;12.10;82.17;97036.64;1641891;87;21218;-63
2021/04/02 06:10:54;;;;;;;4.70;2.92;;;;;;;12.22;82.06;97040.42;1636324;87;21178;-63
2021/04/02 06:13:23;;;;;;;5.42;3.22;;;;;;;12.43;82.46;97039.77;1641921;87;21154;-64
2021/04/02 06:15:52;;;;;;;4.87;2.12;;;;;;;12.61;81.50;97042.35;1641800;87;21170;-63
2021/04/02 06:18:26;;;;;;;3.90;2.00;;;;;;;12.74;80.88;97049.56;1641839;87;21150;-65
2021/04/02 06:20:56;;;;;;;5.33;2.95;;;;;;;12.77;79.84;97046.10;1641931;87;21610;-63
2021/04/02 06:23:27;;;;;;;3.98;2.67;;;;;;;12.77;79.34;97046.10;1641781;87;21186;-63
2021/04/02 06:26:05;;;;;;;2.65;1.95;;;;;;;12.79;79.59;97047.23;1641763;86;21205;-66
2021/04/02 06:28:36;;;;;;;4.37;1.95;;;;;;;12.78;79.24;97046.42;1641820;87;21186;-63
2021/04/02 06:31:11;;;;;;;4.05;2.35;;;;;;;12.78;78.59;97047.73;1641941;87;21182;-64
2021/04/02 06:36:30;;;;;;;3.45;1.92;;;;;;;12.68;78.64;97047.16;1673366;83;21143;-66
2021/04/02 06:39:03;;;;;;;3.77;2.08;;;;;;;12.62;78.48;97041.86;1674401;86;21179;-65
2021/04/02 06:41:34;;;;;;;2.75;2.33;;;;;;;12.64;78.74;97041.20;1674343;86;21309;-65
2021/04/02 06:44:08;;;;;;;7.10;2.87;;;;;;;12.66;79.12;97045.24;1674136;85;21173;-63
2021/04/02 06:46:39;;;;;;;3.47;2.70;;;;;;;12.69;79.15;97048.79;1674351;86;21228;-64
2021/04/02 06:49:15;;;;;;;3.83;2.22;;;;;;;12.67;79.14;97049.47;1674242;86;21596;-64
2021/04/02 06:51:49;;;;;;;4.47;2.55;;;;;;;12.67;78.77;97046.87;1674285;84;21143;-63
2021/04/02 06:54:26;;;;;;;3.22;2.40;;;;;;;12.65;78.87;97046.71;1674229;84;21195;-63
2021/04/02 06:57:05;;;;;;;5.53;2.83;;;;;;;12.61;79.90;97040.23;1674066;85;21178;-65
2021/04/02 06:59:34;;;;;;;4.53;2.65;;;;;;;12.63;79.36;97041.70;1674240;86;21139;-65
2021/04/02 07:02:05;;;;;;;3.90;2.60;;;;;;;12.68;79.37;97051.06;1674120;84;21591;-65
2021/04/02 07:04:34;;;;;;;5.22;2.55;;;;;;;12.69;78.62;97055.78;1674075;86;21175;-65
2021/04/02 07:07:04;;;;;;;2.98;2.10;;;;;;;12.71;78.71;97054.64;1674265;85;21163;-64
2021/04/02 07:09:38;;;;;;;3.70;2.25;;;;;;;12.83;78.04;97057.63;1674447;86;21183;-63
2021/04/02 07:12:28;;;;;;;4.62;2.92;;;;;;;12.98;77.91;97057.13;1674280;86;21583;-65
2021/04/02 07:14:58;;;;;;;4.33;2.37;;;;;;;13.15;77.09;97061.71;1650192;86;21162;-66
2021/04/02 07:17:27;;;;;;;3.12;2.55;;;;;;;13.23;76.89;97058.49;1650321;86;21204;-65
2021/04/02 07:19:58;;;;;;;3.95;2.60;;;;;;;13.31;76.66;97055.79;1650431;86;21223;-65
2021/04/02 07:22:28;;;;;;;3.42;2.60;;;;;;;13.44;76.31;97059.55;1650380;86;21163;-65
2021/04/02 07:24:59;;;;;;;4.55;2.80;;;;;;;13.50;76.27;97058.31;1647881;87;21202;-66
2021/04/02 07:27:27;;;;;;;7.08;2.80;;;;;;;13.60;75.84;97058.05;1650326;87;21194;-65
2021/04/02 07:29:56;;;;;;;4.30;2.62;;;;;;;13.75;75.39;97061.42;1650347;85;21139;-64
2021/04/02 07:32:25;;;;;;;3.60;2.62;;;;;;;13.88;74.89;97058.97;1650352;87;21235;-64
2021/04/02 07:34:53;;;;;;;3.70;2.65;;;;;;;13.99;74.24;97064.19;1650334;87;21563;-66
2021/04/02 07:37:21;;;;;;;4.40;2.83;;;;;;;14.12;73.08;97057.80;1648048;87;21230;-65
2021/04/02 07:39:55;;;;;;;2.80;2.25;;;;;;;14.23;71.59;97065.13;1650313;86;21555;-64
2021/04/02 07:42:23;;;;;;;5.17;2.58;;;;;;;14.33;71.26;97062.19;1650316;85;21158;-64
2021/04/02 07:44:55;;;;;;;4.33;3.00;;;;;;;14.35;70.46;97065.47;1650279;86;21230;-64
2021/04/02 07:47:23;;;;;;;2.83;2.00;;;;;;;14.41;70.79;97066.82;1650276;87;21229;-64
2021/04/02 07:49:58;;;;;;;3.20;2.20;;;;;;;14.54;70.07;97063.52;1650134;86;21187;-65
2021/04/02 07:52:39;;;;;;;2.60;2.35;;;;;;;14.58;69.14;97060.34;1650411;86;21127;-65
2021/04/02 07:55:16;;;;;;;3.77;2.47;;;;;;;14.75;69.52;97069.98;1650096;86;21169;-65
2021/04/02 07:58:19;;;;;;;3.10;2.45;;;;;;;14.77;66.77;97060.66;1650317;86;21246;-65
2021/04/02 08:00:52;;;;;;;6.80;3.33;;;;;;;14.89;68.39;97066.98;1622152;87;21222;-65
2021/04/02 08:03:21;;;;;;;4.70;2.25;;;;;;;14.93;67.83;97075.56;1626680;87;21166;-64
2021/04/02 08:06:03;;;;;;;2.22;1.52;;;;;;;14.99;68.49;97071.36;1650215;86;21186;-65
2021/04/02 08:08:46;;;;;;;3.25;2.62;;;;;;;14.98;67.77;97068.46;1650396;87;21583;-64
2021/04/02 08:11:46;;;;;;;2.85;1.80;;;;;;;14.99;67.67;97077.89;1650183;87;21579;-63
2021/04/02 08:14:18;;;;;;;3.52;2.40;;;;;;;15.03;68.21;97077.33;1650104;87;21219;-65
2021/04/02 08:16:55;;;;;;;4.03;2.22;;;;;;;15.05;66.56;97081.88;1648387;86;21223;-64
2021/04/02 08:20:06;;;;;;;2.52;1.57;;;;;;;15.05;67.12;97081.07;1650459;86;21162;-64
2021/04/02 08:22:35;;;;;;;2.67;1.75;;;;;;;15.03;67.20;97086.48;1677446;84;21210;-63
2021/04/02 08:25:37;;;;;;;2.35;1.80;;;;;;;14.99;67.03;97089.17;1677507;84;21316;-66
2021/04/02 08:28:06;;;;;;;2.52;1.98;;;;;;;14.98;67.04;97093.30;1702905;83;21612;-64
2021/04/02 08:30:34;;;;;;;2.80;1.32;;;;;;;14.97;66.91;97091.18;1667017;85;21208;-64
2021/04/02 08:33:03;;;;;;;4.55;1.55;;;;;;;14.94;66.56;97092.06;1666903;85;21578;-64
2021/04/02 08:35:32;;;;;;;2.37;1.45;;;;;;;14.89;66.53;97086.09;1667061;85;21149;-64
2021/04/02 08:38:05;;;;;;;1.65;1.35;;;;;;;14.83;66.38;97093.87;1667025;85;21200;-64
2021/04/02 08:40:38;;;;;;;2.17;1.25;;;;;;;14.82;66.71;97092.28;1667055;85;21173;-65
2021/04/02 08:43:12;;;;;;;2.00;1.37;;;;;;;14.79;66.60;97089.52;1666915;85;21614;-64
2021/04/02 08:45:42;;;;;;;1.77;1.30;;;;;;;14.76;66.47;97087.30;1665275;85;21209;-64
2021/04/02 08:48:31;;;;;;;1.32;0.95;;;;;;;14.70;66.47;97090.68;1666934;85;21185;-64
2021/04/02 08:51:01;;;;;;;2.15;0.98;;;;;;;14.66;66.07;97098.59;1668744;85;21228;-64
2021/04/02 08:53:40;;;;;;;1.60;0.95;;;;;;;14.65;65.95;97105.61;1663340;85;21192;-64
2021/04/02 08:56:16;;;;;;;2.22;1.00;;;;;;;14.66;65.96;97105.13;1663292;85;21193;-65
2021/04/02 08:58:46;;;;;;;1.70;1.00;;;;;;;14.75;65.64;97107.11;1663382;86;21158;-64
2021/04/02 09:01:17;;;;;;;1.47;0.98;;;;;;;14.86;65.55;97098.25;1663317;85;21189;-65
2021/04/02 09:03:46;;;;;;;1.05;0.72;;;;;;;15.04;65.43;97091.21;1663272;85;21181;-65
2021/04/02 09:06:16;;;;;;;1.05;0.90;;;;;;;15.17;64.61;97090.78;1663511;86;21185;-66
2021/04/02 09:08:44;;;;;;;0.93;0.82;;;;;;;15.24;63.58;97089.53;1663447;85;21146;-64
2021/04/02 09:11:13;;;;;;;2.67;0.78;;;;;;;15.26;64.14;97087.52;1663369;85;21232;-65
2021/04/02 09:13:44;;;;;;;1.10;0.82;;;;;;;15.25;63.38;97089.84;1663224;85;21189;-65
2021/04/02 09:16:15;;;;;;;1.07;0.75;;;;;;;15.17;63.22;97087.38;1663190;86;21181;-65
2021/04/02 09:18:59;;;;;;;1.95;1.05;;;;;;;15.15;63.87;97088.06;1663263;86;21217;-65
2021/04/02 09:21:30;;;;;;;1.27;0.80;;;;;;;15.11;63.03;97090.75;1642757;86;21197;-65
2021/04/02 09:23:58;;;;;;;1.92;0.98;;;;;;;15.15;63.70;97092.80;1663462;86;21660;-64
2021/04/02 09:26:29;;;;;;;1.07;0.98;;;;;;;15.25;63.27;97094.27;1663323;86;21208;-64
2021/04/02 09:28:59;;;;;;;2.45;0.70;;;;;;;15.33;63.09;97096.20;1663385;85;21210;-64
2021/04/02 09:31:32;;;;;;;2.77;1.20;;;;;;;15.38;62.39;97096.44;1663372;86;21516;-64
2021/04/02 09:34:04;;;;;;;2.33;1.20;;;;;;;15.48;61.52;97099.52;1663471;86;21617;-65
2021/04/02 09:36:36;;;;;;;1.32;0.88;;;;;;;15.59;62.35;97099.00;1663464;86;21226;-64
2021/04/02 09:39:37;;;;;;;2.98;1.30;;;;;;;15.86;61.62;97099.91;1663307;86;21272;-64
2021/04/02 09:42:06;;;;;;;3.70;1.75;;;;;;;16.08;61.05;97108.41;1636678;87;21139;-64
2021/04/02 09:44:38;;;;;;;1.60;1.02;;;;;;;16.14;60.70;97107.14;1636664;88;21187;-63
2021/04/02 09:47:12;;;;;;;2.47;1.20;;;;;;;16.11;60.79;97104.08;1636944;88;21314;-64
2021/04/02 09:49:43;;;;;;;4.25;2.22;;;;;;;16.00;59.56;97104.16;1636698;87;21188;-64
2021/04/02 09:52:11;;;;;;;1.62;1.10;;;;;;;15.96;59.94;97108.67;1636861;87;21865;-65
2021/04/02 09:54:40;;;;;;;2.87;1.40;;;;;;;15.97;59.85;97106.38;1636618;87;21203;-64
2021/04/02 09:57:09;;;;;;;1.72;1.17;;;;;;;15.97;59.48;97102.45;1636487;87;21671;-64
2021/04/02 09:59:38;;;;;;;1.47;0.88;;;;;;;15.91;58.89;97097.48;1636938;88;21305;-63
2021/04/02 10:02:06;;;;;;;1.82;1.10;;;;;;;15.85;57.76;97108.75;1636845;87;21171;-65
2021/04/02 10:04:34;;;;;;;2.47;1.35;;;;;;;15.87;58.69;97094.17;1636609;87;21269;-65
2021/04/02 10:07:26;;;;;;;2.37;0.95;;;;;;;15.89;58.21;97100.81;1636795;87;21168;-64
2021/04/02 10:09:54;;;;;;;1.32;0.90;;;;;;;15.95;58.38;97101.84;1675523;85;21180;-64
2021/04/02 10:12:22;;;;;;;1.92;1.05;;;;;;;15.97;58.02;97099.83;1675121;85;21192;-64
2021/04/02 10:14:50;;;;;;;1.85;1.10;;;;;;;16.09;57.21;97095.13;1675284;85;21167;-65
2021/04/02 10:17:19;;;;;;;2.05;1.00;;;;;;;16.27;57.92;97093.73;1675179;85;21625;-63
2021/04/02 10:19:50;;;;;;;2.45;1.50;;;;;;;16.29;57.28;97087.81;1675578;85;21529;-65
2021/04/02 10:22:17;;;;;;;1.32;1.05;;;;;;;16.43;57.13;97090.73;1675096;85;21648;-65
2021/04/02 10:24:45;;;;;;;1.25;1.02;;;;;;;16.49;57.62;97082.09;1675236;86;21164;-65
2021/04/02 10:27:15;;;;;;;5.37;1.47;;;;;;;16.56;57.04;97091.60;1675044;85;21180;-65
2021/04/02 10:29:45;;;;;;;2.87;1.47;;;;;;;16.64;55.81;97091.91;1675396;85;21164;-64
2021/04/02 10:32:13;;;;;;;4.37;1.60;;;;;;;16.78;57.10;97090.07;1675172;85;21565;-65
2021/04/02 10:34:41;;;;;;;3.47;1.87;;;;;;;17.30;55.71;97086.07;1674943;85;21645;-65
2021/04/02 10:37:11;;;;;;;3.55;1.57;;;;;;;17.83;54.66;97078.02;1675165;85;21206;-65
2021/04/02 10:39:39;;;;;;;4.00;1.27;;;;;;;18.33;54.81;97071.05;1675660;86;21176;-65
2021/04/02 10:42:07;;;;;;;5.53;2.22;;;;;;;18.91;50.11;97080.83;1675223;86;21160;-65
2021/04/02 10:44:36;;;;;;;2.40;1.62;;;;;;;19.38;49.23;97075.39;1675475;85;21577;-64
2021/04/02 10:47:05;;;;;;;2.58;1.57;;;;;;;19.67;51.04;97072.57;1675252;85;21145;-65
2021/04/02 10:49:33;;;;;;;1.90;1.20;;;;;;;19.73;51.43;97075.11;1675064;85;21215;-64
2021/04/02 10:52:02;;;;;;;2.50;1.30;;;;;;;19.57;49.24;97074.39;1675175;86;21259;-64
2021/04/02 10:54:30;;;;;;;2.55;1.37;;;;;;;19.64;50.40;97073.83;1675014;86;21160;-66
2021/04/02 10:56:58;;;;;;;3.30;1.60;;;;;;;19.81;49.28;97078.77;1675197;86;21157;-64
2021/04/02 10:59:26;;;;;;;2.12;1.42;;;;;;;19.92;47.83;97069.84;1675542;85;21167;-66
2021/04/02 11:01:54;;;;;;;1.85;1.45;;;;;;;19.78;46.26;97073.14;1675535;86;21199;-65
2021/04/02 11:04:22;;;;;;;2.02;1.25;;;;;;;19.51;46.84;97071.34;1675442;85;21611;-65
2021/04/02 11:06:50;;;;;;;2.47;1.57;;;;;;;19.11;47.20;97060.91;1675439;86;21296;-65
2021/04/02 11:09:18;;;;;;;1.85;1.17;;;;;;;18.73;48.17;97077.66;1677300;85;21584;-71
2021/04/02 11:11:46;;;;;;;2.35;1.40;;;;;;;18.31;48.16;97066.02;1702565;83;21210;-67
2021/04/02 11:14:14;;;;;;;2.15;1.20;;;;;;;18.00;49.14;97076.02;1702526;84;21166;-65
2021/04/02 11:16:43;;;;;;;2.08;1.35;;;;;;;17.82;50.15;97077.74;1702287;84;21179;-65
2021/04/02 11:19:11;;;;;;;4.35;1.45;;;;;;;17.83;49.66;97082.77;1702472;84;21186;-65
2021/04/02 11:21:39;;;;;;;2.87;1.55;;;;;;;17.81;49.60;97081.37;1702466;83;21182;-64
2021/04/02 11:24:08;;;;;;;2.30;1.72;;;;;;;17.76;50.08;97073.31;1702421;84;21161;-64
2021/04/02 11:26:36;;;;;;;3.33;1.45;;;;;;;17.94;50.11;97076.84;1702382;84;21187;-64
2021/04/02 11:29:05;;;;;;;3.55;1.62;;;;;;;18.20;49.27;97077.22;1676394;84;21158;-65
2021/04/02 11:31:34;;;;;;;2.25;1.60;;;;;;;18.58;48.31;97060.59;1702303;84;21620;-65
2021/04/02 11:34:03;;;;;;;5.62;1.72;;;;;;;18.98;47.20;97057.91;1702318;84;21167;-64
2021/04/02 11:36:31;;;;;;;2.10;1.60;;;;;;;19.65;46.48;97055.66;1702256;83;21202;-65
2021/04/02 11:39:00;;;;;;;3.15;1.52;;;;;;;19.79;44.26;97055.00;1702213;84;21163;-65
2021/04/02 11:41:29;;;;;;;3.45;1.60;;;;;;;20.08;46.17;97072.63;1702232;83;21151;-65
2021/04/02 11:43:57;;;;;;;2.08;1.72;;;;;;;19.93;47.17;97084.59;1702365;83;21586;-65
2021/04/02 11:46:25;;;;;;;5.22;2.22;;;;;;;18.81;49.67;97083.16;1702397;84;21171;-65
2021/04/02 11:48:53;;;;;;;8.05;2.30;;;;;;;17.76;52.96;97083.31;1702341;83;21178;-65
2021/04/02 11:51:21;;;;;;;3.67;1.60;;;;;;;17.06;54.31;97081.48;1702290;83;21599;-64
2021/04/02 11:53:50;;;;;;;4.67;2.72;;;;;;;16.75;55.58;97084.73;1702198;84;21618;-65
2021/04/02 11:56:19;;;;;;;3.27;1.77;;;;;;;17.03;55.52;97079.27;1666055;85;21599;-65
2021/04/02 11:58:48;;;;;;;3.08;1.80;;;;;;;17.56;53.53;97081.23;1702467;84;21202;-65
2021/04/02 12:01:16;;;;;;;3.42;2.00;;;;;;;17.54;52.81;97080.65;1702265;83;21303;-64
2021/04/02 12:03:44;;;;;;;3.80;1.60;;;;;;;17.60;52.51;97096.09;1702281;83;21219;-64
2021/04/02 12:06:12;;;;;;;2.25;1.52;;;;;;;17.44;51.36;97092.88;1702218;84;21174;-64